Titonka, IA

6:29 AM CDT on April 26, 2015 (GMT -0500)
Forest City Municipal | | Change Station
CLOSE
Current Station
Airport
Location: Forest City,
Elevation: 1230 ft
Nearby Weather Stations

Elev 1230 ft 43.23 °N, 93.62 °W | Updated 14 minutes ago

Partly Cloudy
Partly Cloudy
30 °F
Feels Like 30 °F
N
0
Wind Variable Wind from North

Today
High -- | Low -- °F
--% Chance of Precip.
Yesterday
High -- | Low -- °F
Precip. -- in
6:17 AM 8:11 PM
First Quarter, 55% visible
Pressure 30.01 in
Visibility 0.5 miles
Clouds
Dew Point 30 °F
Humidity 100%
Rainfall 0.00 in
Snow Depth Not available.
UV Not available.
Pollen 10.80 out of 12
Air Quality Not available.
Flu Activity Local Activity
METAR KFXY 261115Z AUTO 00000KT 1/2SM FZFG VV005 M01/M01 A3001 RMK AO2

More Conditions Fewer Conditions

Pressure 30.01 in
Visibility 0.5 miles
Clouds
Dew Point 30 °F
Humidity 100%
Rainfall 0.00 in
Snow Depth Not available.
UV Not available.
Pollen 10.80 out of 12
Air Quality Not available.
Flu Activity Local Activity
METAR KFXY 261115Z AUTO 00000KT 1/2SM FZFG VV005 M01/M01 A3001 RMK AO2

More Conditions Fewer Conditions

The full scope of the disaster following a powerful 7.8-magnitude earthquake in Nepal may not come into view for days, but global charities are already sending emergency aid. Click to see how you can help.

10-Day Weather Forecast

Almanac

Astronomy

Apr. 26, 2015 Rise Set
Actual Time
Civil Twilight
Nautical Twilight
Astronomical Twilight
Moon
Length of Visible Light
Length of Day
Tomorrow will be .
, % of the Moon is Illuminated

Today's Extremes

State Highs State Lows

Community

WunderPhotos

Upload Photos

1,816,964 photos uploaded!

WunderBlogs® & News

Nearby

Air Quality

  Air Quality AQ Index Pollutant
Not available.

Snow Depth

Station Depth Elevation

Earthquake Activity

City Distance Mag. Time & Date
Minimum magnitude displayed is 2.5.

Coastal Water Temperatures

Place Temperature

Stations

Nearby Weather Stations

Station Location Temp. Windchill Dew Point Humidity Wind Precip. Elev Updated Type